RJBB/KIX METAR and TAF weather

Enter ICAO airport designator
Station Type Date Time Source
RJBB METAR 2022/12/02 22:00 UTC NOAA

RJBB 022200Z 06006KT 9999 FEW025 05/02 Q1028 NOSIG


Station Type Date Time Source
RJBB Decoded METAR 2022/12/02 22:00 UTC NOAA

Kansai International Airport, Japan (RJBB) 34-25N 135-15E 8M
Dec 02, 2022 - 05:00 PM EST / 2022.12.02 2200 UTC
Wind: from the ENE (060 degrees) at 7 MPH (6 KT):0
Visibility: greater than 7 mile(s):0
Sky conditions: mostly clear
Temperature: 41 F (5 C)
Dew Point: 35 F (2 C)
Relative Humidity: 80%
Pressure (altimeter): 30.36 in. Hg (1028 hPa)
ob: RJBB 022200Z 06006KT 9999 FEW025 05/02 Q1028 NOSIG
cycle: 22

Station Type Date Time Source
RJBB TAF 2022/12/02 18:28 UTC NOAA

TAF RJBB 021706Z 0218/0400 09008KT 9999 FEW020
BECMG 0301/0303 30005KT

Example: see airport list